Time;durP1;ratioP1;P1;durP2;ratioP2;P2;SDS_P1;SDS_P2;PMS_P1;PMS_P2;Temp;Humidity;BMP_temperature;BMP_pressure;BME280_temperature;BME280_humidity;BME280_pressure;Samples;Min_cycle;Max_cycle;Signal;HPM_P1;HPM_P2
2023/06/24 00:01:31;;;;;;;;;;;;;;;18.51;42.65;101328.81;4958770;28;98464;-84
2023/06/24 00:03:57;;;;;;;;;;;;;;;18.52;42.59;101324.16;4923217;28;97948;-84
2023/06/24 00:06:25;;;;;;;;;;;;;;;18.54;42.61;101319.22;4940974;28;97955;-70
2023/06/24 00:09:00;;;;;;;;;;;;;;;18.53;42.57;101317.59;4943582;28;99238;-70
2023/06/24 00:11:31;;;;;;;;;;;;;;;18.53;42.70;101314.88;4925983;27;97896;-70
2023/06/24 00:13:57;;;;;;;;;;;;;;;18.53;42.62;101320.31;4922356;27;98265;-85
2023/06/24 00:16:27;;;;;;;;;;;;;;;18.52;42.56;101318.72;4946221;27;100289;-85
2023/06/24 00:19:01;;;;;;;;;;;;;;;18.51;42.69;101325.25;4932004;27;98097;-85
2023/06/24 00:21:31;;;;;;;;;;;;;;;18.51;42.75;101317.91;4943941;28;98187;-82
2023/06/24 00:24:06;;;;;;;;;;;;;;;18.50;42.64;101320.91;4946094;28;98135;-69
2023/06/24 00:26:33;;;;;;;;;;;;;;;18.51;42.64;101314.34;4926044;28;98363;-85
2023/06/24 00:28:59;;;;;;;;;;;;;;;18.50;42.66;101319.00;4929261;28;98229;-84
2023/06/24 00:31:26;;;;;;;;;;;;;;;18.49;42.51;101317.38;4932353;28;98003;-85
2023/06/24 00:33:52;;;;;;;;;;;;;;;18.49;42.78;101316.56;4920568;27;97991;-85
2023/06/24 00:36:20;;;;;;;;;;;;;;;18.49;42.66;101313.84;4930700;28;97986;-83
2023/06/24 00:38:48;;;;;;;;;;;;;;;18.48;42.60;101312.22;4928584;28;98245;-84
2023/06/24 00:41:16;;;;;;;;;;;;;;;18.47;42.60;101322.34;4920572;28;98216;-84
2023/06/24 00:43:43;;;;;;;;;;;;;;;18.48;42.59;101320.44;4938220;28;98080;-71
2023/06/24 00:46:09;;;;;;;;;;;;;;;18.47;42.74;101318.78;4927839;28;98331;-84
2023/06/24 00:48:38;;;;;;;;;;;;;;;18.48;42.57;101320.44;4933568;27;98300;-71
2023/06/24 00:51:05;;;;;;;;;;;;;;;18.46;42.66;101322.63;4925124;28;98349;-79
2023/06/24 00:53:33;;;;;;;;;;;;;;;18.47;42.69;101321.50;4933829;28;98827;-71
2023/06/24 00:56:02;;;;;;;;;;;;;;;18.46;42.82;101307.06;4931687;28;98646;-70
2023/06/24 00:58:30;;;;;;;;;;;;;;;18.47;42.72;101300.50;4933563;28;98311;-70
2023/06/24 01:00:59;;;;;;;;;;;;;;;18.47;42.85;101302.41;4965458;27;98183;-71
2023/06/24 01:03:26;;;;;;;;;;;;;;;18.46;42.68;101296.13;4934551;28;98376;-84
2023/06/24 01:05:55;;;;;;;;;;;;;;;18.46;42.82;101300.78;4945190;28;97994;-85
2023/06/24 01:08:22;;;;;;;;;;;;;;;18.47;42.74;101307.88;4948900;28;98113;-71
2023/06/24 01:10:53;;;;;;;;;;;;;;;18.46;42.86;101309.78;4934059;28;98256;-84
2023/06/24 01:13:20;;;;;;;;;;;;;;;18.46;42.75;101301.59;4933442;28;98103;-70
2023/06/24 01:15:47;;;;;;;;;;;;;;;18.45;42.80;101294.53;4934279;27;98646;-84
2023/06/24 01:18:32;;;;;;;;;;;;;;;18.45;42.72;101289.06;4927159;28;98465;-70
2023/06/24 01:21:31;;;;;;;;;;;;;;;18.44;42.69;101292.09;4965285;28;98447;-70
2023/06/24 01:24:43;;;;;;;;;;;;;;;18.42;42.83;101297.84;4951253;28;98410;-84
2023/06/24 01:27:28;;;;;;;;;;;;;;;18.42;42.71;101294.31;4967292;28;98079;-70
2023/06/24 01:29:59;;;;;;;;;;;;;;;18.39;42.72;101296.56;4955502;28;98046;-70
2023/06/24 01:32:38;;;;;;;;;;;;;;;18.38;42.86;101297.63;4941660;28;98634;-71
2023/06/24 01:35:20;;;;;;;;;;;;;;;18.38;42.78;101302.28;4943365;28;97757;-71
2023/06/24 01:37:49;;;;;;;;;;;;;;;18.37;42.88;101304.22;4930799;28;98053;-84
2023/06/24 01:40:36;;;;;;;;;;;;;;;18.36;42.88;101308.06;4923120;28;97970;-71
2023/06/24 01:43:03;;;;;;;;;;;;;;;18.37;42.70;101304.22;4965550;27;97879;-84
2023/06/24 01:45:36;;;;;;;;;;;;;;;18.37;42.77;101309.66;4944468;27;98028;-84
2023/06/24 01:48:14;;;;;;;;;;;;;;;18.36;42.89;101310.78;4951423;28;97991;-84
2023/06/24 01:50:49;;;;;;;;;;;;;;;18.36;42.79;101307.25;4931181;28;97943;-84
2023/06/24 01:53:17;;;;;;;;;;;;;;;18.37;42.81;101309.66;4948338;28;99732;-70
2023/06/24 01:55:43;;;;;;;;;;;;;;;18.36;42.84;101318.97;4946158;28;98158;-84
2023/06/24 01:58:09;;;;;;;;;;;;;;;18.35;42.85;101313.81;4923865;28;97963;-84
2023/06/24 02:00:37;;;;;;;;;;;;;;;18.31;42.88;101308.16;4931258;28;98127;-84
2023/06/24 02:03:04;;;;;;;;;;;;;;;18.32;42.94;101308.97;4929940;28;99088;-84
2023/06/24 02:05:31;;;;;;;;;;;;;;;18.31;42.94;101307.31;4924382;28;98095;-84
2023/06/24 02:07:57;;;;;;;;;;;;;;;18.29;42.91;101307.63;4949288;28;99344;-70
2023/06/24 02:10:26;;;;;;;;;;;;;;;18.28;43.00;101306.03;4958464;28;98319;-71
2023/06/24 02:12:52;;;;;;;;;;;;;;;18.28;42.78;101308.75;4928343;27;97974;-84
2023/06/24 02:15:18;;;;;;;;;;;;;;;18.27;43.03;101315.28;4935040;28;98106;-84
2023/06/24 02:17:44;;;;;;;;;;;;;;;18.27;42.90;101317.22;4929443;28;99684;-84
2023/06/24 02:20:11;;;;;;;;;;;;;;;18.28;42.85;101316.94;4928994;28;98281;-70
2023/06/24 02:22:39;;;;;;;;;;;;;;;18.28;42.79;101319.66;4932035;27;98391;-71
2023/06/24 02:25:06;;;;;;;;;;;;;;;18.28;43.13;101322.38;4924305;27;98266;-83
2023/06/24 02:27:33;;;;;;;;;;;;;;;18.28;42.78;101321.59;4950361;28;98040;-83
2023/06/24 02:30:01;;;;;;;;;;;;;;;18.29;43.06;101317.75;4947510;28;98048;-71
2023/06/24 02:32:31;;;;;;;;;;;;;;;18.30;43.12;101316.63;4931196;28;97837;-84
2023/06/24 02:34:59;;;;;;;;;;;;;;;18.29;43.05;101315.81;4925954;28;98200;-83
2023/06/24 02:37:28;;;;;;;;;;;;;;;18.30;42.92;101311.16;4933485;28;99609;-71
2023/06/24 02:39:56;;;;;;;;;;;;;;;18.30;42.95;101320.16;4932168;27;98105;-83
2023/06/24 02:42:24;;;;;;;;;;;;;;;18.30;43.05;101311.16;4932377;28;98178;-71
2023/06/24 02:44:52;;;;;;;;;;;;;;;18.30;43.08;101317.44;4932132;28;98116;-70
2023/06/24 02:47:20;;;;;;;;;;;;;;;18.31;43.04;101324.53;4941208;28;98430;-70
2023/06/24 02:49:46;;;;;;;;;;;;;;;18.31;43.05;101324.53;4936737;28;99579;-84
2023/06/24 02:52:13;;;;;;;;;;;;;;;18.33;43.02;101318.75;4934004;28;98088;-83
2023/06/24 02:54:40;;;;;;;;;;;;;;;18.33;42.94;101319.56;4947209;27;98104;-71
2023/06/24 02:57:07;;;;;;;;;;;;;;;18.36;42.93;101327.16;4926233;28;97972;-83
2023/06/24 02:59:35;;;;;;;;;;;;;;;18.37;42.92;101319.78;4927940;28;97969;-82
2023/06/24 03:02:01;;;;;;;;;;;;;;;18.37;43.02;101319.78;4929176;28;97984;-82
2023/06/24 03:04:28;;;;;;;;;;;;;;;18.39;42.98;101318.38;4947470;28;98026;-83
2023/06/24 03:06:55;;;;;;;;;;;;;;;18.40;42.91;101314.53;4924494;27;98143;-83
2023/06/24 03:09:22;;;;;;;;;;;;;;;18.41;42.83;101320.81;4930269;28;97937;-71
2023/06/24 03:11:49;;;;;;;;;;;;;;;18.43;43.11;101321.31;4932491;28;98214;-71
2023/06/24 03:14:16;;;;;;;;;;;;;;;18.42;42.82;101324.34;4930226;28;98210;-71
2023/06/24 03:16:46;;;;;;;;;;;;;;;18.44;43.05;101313.94;4930723;28;119292;-71
2023/06/24 03:19:13;;;;;;;;;;;;;;;18.45;42.93;101323.75;4931407;28;98195;-71
2023/06/24 03:21:40;;;;;;;;;;;;;;;18.45;43.05;101321.81;4946937;27;97964;-82
2023/06/24 03:24:09;;;;;;;;;;;;;;;18.46;43.07;101325.34;4943289;28;98223;-71
2023/06/24 03:26:40;;;;;;;;;;;;;;;18.47;43.13;101338.72;4947782;28;98926;-71
2023/06/24 03:29:10;;;;;;;;;;;;;;;18.47;43.03;101330.53;4945980;28;98233;-82
2023/06/24 03:31:37;;;;;;;;;;;;;;;18.49;43.01;101341.94;4922040;27;98011;-71
2023/06/24 03:34:05;;;;;;;;;;;;;;;18.51;42.94;101344.38;4926517;27;98445;-71
2023/06/24 03:36:34;;;;;;;;;;;;;;;18.52;42.76;101338.63;4929087;27;98419;-82
2023/06/24 03:39:03;;;;;;;;;;;;;;;18.57;43.03;101349.44;4932175;27;98175;-82
2023/06/24 03:41:29;;;;;;;;;;;;;;;18.59;43.04;101338.25;4943986;28;97834;-83
2023/06/24 03:43:56;;;;;;;;;;;;;;;18.67;42.78;101347.63;4933572;27;98316;-71
2023/06/24 03:46:25;;;;;;;;;;;;;;;18.70;42.81;101342.41;4930293;27;99542;-71
2023/06/24 03:48:51;;;;;;;;;;;;;;;18.73;42.75;101343.75;4933509;27;98087;-82
2023/06/24 03:51:18;;;;;;;;;;;;;;;18.72;42.95;101342.94;4929736;28;98188;-71
2023/06/24 03:53:44;;;;;;;;;;;;;;;18.76;42.85;101351.34;4945098;27;98024;-71
2023/06/24 03:56:10;;;;;;;;;;;;;;;18.80;42.98;101347.72;4953216;28;128606;-84
2023/06/24 03:58:37;;;;;;;;;;;;;;;18.87;42.79;101344.59;4929904;28;97956;-71
2023/06/24 04:01:03;;;;;;;;;;;;;;;18.94;42.69;101344.97;4948046;28;104852;-82
2023/06/24 04:03:31;;;;;;;;;;;;;;;18.98;42.80;101350.66;4945687;28;97759;-72
2023/06/24 04:05:58;;;;;;;;;;;;;;;19.02;42.87;101354.41;4924433;28;98781;-83
2023/06/24 04:08:29;;;;;;;;;;;;;;;19.06;42.76;101356.25;4943269;28;98121;-83
2023/06/24 04:10:55;;;;;;;;;;;;;;;19.14;42.56;101352.00;4928712;27;98116;-83
2023/06/24 04:13:22;;;;;;;;;;;;;;;19.17;42.62;101359.56;4930491;28;98691;-71
2023/06/24 04:15:50;;;;;;;;;;;;;;;19.18;42.49;101361.22;4940568;27;98242;-71
2023/06/24 04:18:17;;;;;;;;;;;;;;;19.26;42.69;101371.44;4941045;28;97999;-83
2023/06/24 04:20:43;;;;;;;;;;;;;;;19.30;42.51;101372.44;4947278;28;98332;-83
2023/06/24 04:23:10;;;;;;;;;;;;;;;19.34;42.53;101384.38;4928013;28;99356;-71
2023/06/24 04:25:37;;;;;;;;;;;;;;;19.41;42.48;101383.94;4947326;28;98330;-71
2023/06/24 04:28:05;;;;;;;;;;;;;;;19.44;42.46;101379.81;4943577;28;100325;-71
2023/06/24 04:30:32;;;;;;;;;;;;;;;19.50;42.47;101376.69;4941358;28;98067;-72
2023/06/24 04:32:58;;;;;;;;;;;;;;;19.56;42.52;101377.38;4930554;28;99201;-72
2023/06/24 04:35:26;;;;;;;;;;;;;;;19.59;42.49;101374.03;4944722;28;98015;-82
2023/06/24 04:37:52;;;;;;;;;;;;;;;19.68;42.38;101374.94;4947693;27;98743;-72
2023/06/24 04:40:19;;;;;;;;;;;;;;;19.73;42.25;101374.84;4938217;28;98915;-72
2023/06/24 04:42:45;;;;;;;;;;;;;;;19.72;42.44;101381.41;4946287;27;98268;-84
2023/06/24 04:45:12;;;;;;;;;;;;;;;19.71;42.35;101379.00;4928638;28;98036;-83
2023/06/24 04:47:44;;;;;;;;;;;;;;;19.74;42.33;101386.59;4928838;28;98497;-71
2023/06/24 04:50:11;;;;;;;;;;;;;;;19.91;42.32;101385.94;4947560;28;98987;-71
2023/06/24 04:52:38;;;;;;;;;;;;;;;19.98;42.22;101378.94;4931804;28;99408;-71
2023/06/24 04:55:05;;;;;;;;;;;;;;;20.10;42.03;101387.41;4926505;28;98450;-71
2023/06/24 04:57:34;;;;;;;;;;;;;;;20.12;42.38;101389.81;4944063;28;98839;-81
2023/06/24 05:00:01;;;;;;;;;;;;;;;20.10;42.24;101390.13;4924254;27;98680;-81
2023/06/24 05:02:28;;;;;;;;;;;;;;;20.25;42.13;101385.44;4921893;27;98243;-70
2023/06/24 05:04:54;;;;;;;;;;;;;;;20.23;42.03;101387.66;4924832;27;98334;-81
2023/06/24 05:07:21;;;;;;;;;;;;;;;20.23;42.24;101393.13;4941921;27;116320;-75
2023/06/24 05:09:48;;;;;;;;;;;;;;;20.38;42.02;101397.44;4924503;27;98036;-82
2023/06/24 05:12:15;;;;;;;;;;;;;;;20.54;42.05;101401.44;4925065;28;98315;-81
2023/06/24 05:14:42;;;;;;;;;;;;;;;20.60;41.85;101405.69;4926177;27;99950;-82
2023/06/24 05:17:09;;;;;;;;;;;;;;;20.58;42.00;101416.94;4924651;27;98421;-82
2023/06/24 05:19:41;;;;;;;;;;;;;;;20.64;42.06;101412.16;4925754;28;98410;-69
2023/06/24 05:22:09;;;;;;;;;;;;;;;20.71;41.84;101404.31;4926086;28;98406;-80
2023/06/24 05:24:36;;;;;;;;;;;;;;;20.84;41.81;101397.94;4924355;27;98164;-82
2023/06/24 05:27:06;;;;;;;;;;;;;;;21.05;41.61;101400.13;4925556;28;98167;-82
2023/06/24 05:29:34;;;;;;;;;;;;;;;21.08;41.49;101403.03;4925881;28;98435;-82
2023/06/24 05:32:03;;;;;;;;;;;;;;;21.07;41.74;101404.19;4928699;27;98263;-82
2023/06/24 05:34:30;;;;;;;;;;;;;;;21.01;41.91;101407.38;4922175;27;100109;-70
2023/06/24 05:36:57;;;;;;;;;;;;;;;20.99;41.94;101409.63;4943832;27;98332;-81
2023/06/24 05:39:24;;;;;;;;;;;;;;;20.98;41.92;101405.25;4927095;27;98514;-73
2023/06/24 05:41:51;;;;;;;;;;;;;;;21.10;41.89;101410.94;4926958;27;98959;-81
2023/06/24 05:44:18;;;;;;;;;;;;;;;21.25;41.71;101413.25;4918846;27;98530;-70
2023/06/24 05:46:46;;;;;;;;;;;;;;;21.40;41.53;101414.00;4931196;27;100303;-70
2023/06/24 05:49:13;;;;;;;;;;;;;;;21.45;41.54;101420.13;4920871;27;98453;-70
2023/06/24 05:51:40;;;;;;;;;;;;;;;21.46;41.56;101423.72;4920848;27;98241;-81
2023/06/24 05:54:09;;;;;;;;;;;;;;;21.48;41.66;101421.44;4922707;27;98052;-81
2023/06/24 05:56:38;;;;;;;;;;;;;;;21.59;41.61;101428.25;4932019;27;98354;-69
2023/06/24 05:59:06;;;;;;;;;;;;;;;22.00;41.24;101418.81;4925807;28;98192;-80
2023/06/24 06:01:32;;;;;;;;;;;;;;;22.06;41.33;101423.03;4929052;27;99173;-82
2023/06/24 06:03:59;;;;;;;;;;;;;;;22.22;41.15;101420.63;4919291;27;98373;-81
2023/06/24 06:06:27;;;;;;;;;;;;;;;22.18;41.38;101414.97;4927588;28;98306;-71
2023/06/24 06:08:56;;;;;;;;;;;;;;;22.04;41.47;101417.03;4927512;28;98325;-70
2023/06/24 06:11:22;;;;;;;;;;;;;;;22.00;41.59;101416.06;4926120;28;98277;-81
2023/06/24 06:13:48;;;;;;;;;;;;;;;21.91;41.98;101418.81;4927310;27;99224;-81
2023/06/24 06:16:15;;;;;;;;;;;;;;;21.74;41.88;101416.03;4924223;28;100143;-71
2023/06/24 06:18:41;;;;;;;;;;;;;;;21.54;42.05;101423.75;4927126;27;98136;-70
2023/06/24 06:21:08;;;;;;;;;;;;;;;21.37;42.30;101417.38;4921578;28;98071;-70
2023/06/24 06:23:34;;;;;;;;;;;;;;;21.25;42.41;101424.22;4921190;28;98781;-69
2023/06/24 06:26:00;;;;;;;;;;;;;;;21.16;42.30;101425.34;4925813;27;98268;-81
2023/06/24 06:28:27;;;;;;;;;;;;;;;21.07;42.48;101417.88;4941260;28;98880;-81
2023/06/24 06:30:53;;;;;;;;;;;;;;;21.02;42.45;101422.66;4927488;27;98053;-82
2023/06/24 06:33:20;;;;;;;;;;;;;;;20.99;42.43;101434.28;4923165;27;98026;-70
2023/06/24 06:35:47;;;;;;;;;;;;;;;21.01;42.31;101434.75;4920980;28;98161;-81
2023/06/24 06:38:13;;;;;;;;;;;;;;;21.02;42.47;101431.69;4938365;27;98255;-69
2023/06/24 06:40:40;;;;;;;;;;;;;;;21.05;42.23;101430.28;4921898;27;98487;-80
2023/06/24 06:43:06;;;;;;;;;;;;;;;21.01;42.51;101440.25;4925376;27;98461;-70
2023/06/24 06:45:33;;;;;;;;;;;;;;;20.95;42.39;101436.03;4919939;28;99058;-69
2023/06/24 06:48:00;;;;;;;;;;;;;;;20.92;42.50;101439.41;4919244;28;100569;-70
2023/06/24 06:50:28;;;;;;;;;;;;;;;20.93;42.44;101436.34;4917129;28;98167;-69
2023/06/24 06:52:54;;;;;;;;;;;;;;;21.04;42.29;101434.94;4930071;27;98058;-70
2023/06/24 06:55:21;;;;;;;;;;;;;;;21.42;41.76;101434.50;4934282;27;98306;-82
2023/06/24 06:57:47;;;;;;;;;;;;;;;22.00;41.34;101432.53;4946740;27;97897;-81
2023/06/24 07:00:14;;;;;;;;;;;;;;;21.97;41.44;101433.19;4944803;28;98498;-70
2023/06/24 07:02:41;;;;;;;;;;;;;;;22.01;41.40;101439.66;4915921;27;98487;-85
2023/06/24 07:05:09;;;;;;;;;;;;;;;22.25;41.13;101437.28;4924785;28;98654;-70
2023/06/24 07:07:38;;;;;;;;;;;;;;;22.28;41.24;101433.06;4908549;28;98142;-70
2023/06/24 07:10:05;;;;;;;;;;;;;;;22.40;41.33;101433.25;4903450;28;98120;-79
2023/06/24 07:12:31;;;;;;;;;;;;;;;22.88;40.66;101431.38;4924644;28;98473;-81
2023/06/24 07:14:58;;;;;;;;;;;;;;;23.14;40.53;101436.81;4899877;28;98733;-81
2023/06/24 07:17:26;;;;;;;;;;;;;;;23.23;40.54;101443.09;4906077;28;98349;-71
2023/06/24 07:19:53;;;;;;;;;;;;;;;23.17;40.81;101436.16;4909053;28;98156;-81
2023/06/24 07:22:21;;;;;;;;;;;;;;;23.15;41.14;101435.69;4923935;28;98429;-70
2023/06/24 07:24:48;;;;;;;;;;;;;;;23.26;41.00;101435.00;4921182;28;98307;-80
2023/06/24 07:27:15;;;;;;;;;;;;;;;24.19;39.88;101430.41;4912061;28;98014;-81
2023/06/24 07:29:44;;;;;;;;;;;;;;;25.38;38.68;101435.38;4919380;28;98992;-70
2023/06/24 07:32:12;;;;;;;;;;;;;;;25.27;39.20;101445.25;4904314;28;98300;-79
2023/06/24 07:34:39;;;;;;;;;;;;;;;25.16;39.70;101444.91;4906107;28;98091;-70
2023/06/24 07:37:06;;;;;;;;;;;;;;;26.15;38.70;101444.50;4908727;28;110938;-70
2023/06/24 07:39:33;;;;;;;;;;;;;;;26.45;38.82;101452.50;4921341;28;98279;-72
2023/06/24 07:42:00;;;;;;;;;;;;;;;26.72;38.48;101450.06;4903179;28;100280;-71
2023/06/24 07:44:31;;;;;;;;;;;;;;;27.97;37.72;101444.88;4923009;28;98157;-80
2023/06/24 07:46:58;;;;;;;;;;;;;;;27.70;38.40;101449.38;4923401;28;98202;-70
2023/06/24 07:49:25;;;;;;;;;;;;;;;27.06;39.29;101454.13;4912119;28;98472;-79
2023/06/24 07:51:52;;;;;;;;;;;;;;;26.42;39.96;101451.22;4920926;28;98354;-80
2023/06/24 07:54:19;;;;;;;;;;;;;;;26.01;40.51;101457.09;4891598;28;99488;-71
2023/06/24 07:56:46;;;;;;;;;;;;;;;25.77;40.56;101447.66;4903416;28;100142;-71
2023/06/24 07:59:13;;;;;;;;;;;;;;;25.54;40.66;101450.09;4900976;28;98196;-80
2023/06/24 08:01:39;;;;;;;;;;;;;;;25.21;41.09;101450.19;4906693;28;99513;-80
2023/06/24 08:04:06;;;;;;;;;;;;;;;25.00;40.88;101450.25;4900801;28;98631;-79
2023/06/24 08:06:34;;;;;;;;;;;;;;;24.70;41.35;101450.41;4906680;28;98065;-80
2023/06/24 08:09:01;;;;;;;;;;;;;;;24.61;41.19;101449.69;4901015;28;98520;-71
2023/06/24 08:11:27;;;;;;;;;;;;;;;24.66;40.95;101452.22;4900265;28;98726;-70
2023/06/24 08:13:54;;;;;;;;;;;;;;;24.75;41.00;101457.66;4906671;28;99280;-70
2023/06/24 08:16:20;;;;;;;;;;;;;;;24.65;40.88;101461.66;4907698;28;98109;-70
2023/06/24 08:18:47;;;;;;;;;;;;;;;24.52;41.30;101457.22;4905284;28;98504;-80
2023/06/24 08:21:14;;;;;;;;;;;;;;;24.57;41.00;101462.53;4907938;28;98750;-70
2023/06/24 08:23:40;;;;;;;;;;;;;;;24.77;40.75;101457.31;4905791;28;98214;-80
2023/06/24 08:26:07;;;;;;;;;;;;;;;24.66;40.68;101467.97;4908873;28;98829;-79
2023/06/24 08:28:34;;;;;;;;;;;;;;;24.41;41.26;101456.84;4906297;28;99541;-70
2023/06/24 08:31:01;;;;;;;;;;;;;;;24.21;41.39;101463.13;4908017;28;97982;-70
2023/06/24 08:33:27;;;;;;;;;;;;;;;24.04;41.38;101471.50;4927490;28;98352;-80
2023/06/24 08:35:55;;;;;;;;;;;;;;;23.86;41.73;101471.63;4918365;28;98155;-72
2023/06/24 08:38:22;;;;;;;;;;;;;;;23.66;41.88;101475.94;4910831;28;99005;-80
2023/06/24 08:40:49;;;;;;;;;;;;;;;23.44;41.99;101476.97;4904762;28;98142;-80
2023/06/24 08:43:15;;;;;;;;;;;;;;;23.39;41.98;101482.69;4905026;28;98088;-71
2023/06/24 08:45:43;;;;;;;;;;;;;;;23.54;41.32;101481.31;4915783;28;99335;-71
2023/06/24 08:48:09;;;;;;;;;;;;;;;23.67;41.14;101485.81;4922538;28;99147;-77
2023/06/24 08:50:44;;;;;;;;;;;;;;;23.66;41.31;101483.41;4905511;28;100225;-83
2023/06/24 08:53:11;;;;;;;;;;;;;;;23.55;41.25;101490.38;4920444;28;98402;-81
2023/06/24 08:55:42;;;;;;;;;;;;;;;23.46;41.46;101491.22;4906004;28;98303;-71
2023/06/24 08:58:09;;;;;;;;;;;;;;;23.37;41.48;101489.63;4922513;28;98370;-80
2023/06/24 09:00:36;;;;;;;;;;;;;;;23.24;41.55;101491.47;4898787;28;98155;-78
2023/06/24 09:03:02;;;;;;;;;;;;;;;23.21;41.82;101486.63;4924125;28;98322;-79
2023/06/24 09:05:28;;;;;;;;;;;;;;;23.27;41.39;101488.88;4901094;28;98254;-70
2023/06/24 09:07:55;;;;;;;;;;;;;;;23.30;41.29;101481.88;4943626;27;98032;-70
2023/06/24 09:10:34;;;;;;;;;;;;;;;23.36;41.30;101479.78;4929471;27;98574;-78
2023/06/24 09:13:05;;;;;;;;;;;;;;;23.45;41.31;101472.28;4920508;27;98562;-71
2023/06/24 09:15:38;;;;;;;;;;;;;;;24.37;40.21;101474.34;4923398;28;99971;-77
2023/06/24 09:18:05;;;;;;;;;;;;;;;26.20;38.27;101466.34;4915632;28;97944;-79
2023/06/24 09:20:32;;;;;;;;;;;;;;;28.69;35.67;101472.94;4936968;28;99163;-76
2023/06/24 09:23:03;;;;;;;;;;;;;;;30.42;34.87;101475.34;4922353;28;98240;-71
2023/06/24 09:25:30;;;;;;;;;;;;;;;29.89;36.34;101486.50;4923404;28;99273;-78
2023/06/24 09:28:02;;;;;;;;;;;;;;;31.42;35.35;101486.72;4920983;28;97905;-78
2023/06/24 09:30:28;;;;;;;;;;;;;;;30.81;36.39;101494.44;4941095;27;98314;-72
2023/06/24 09:32:56;;;;;;;;;;;;;;;31.39;36.31;101487.47;4930626;27;98405;-72
2023/06/24 09:35:24;;;;;;;;;;;;;;;32.21;35.73;101479.66;4917879;27;98392;-75
2023/06/24 09:37:54;;;;;;;;;;;;;;;31.87;36.20;101487.44;4928025;27;99607;-77
2023/06/24 09:40:21;;;;;;;;;;;;;;;34.47;33.80;101494.47;4929943;28;100004;-77
2023/06/24 09:42:54;;;;;;;;;;;;;;;35.48;33.44;101490.63;4944345;27;98350;-72
2023/06/24 09:45:27;;;;;;;;;;;;;;;37.31;32.21;101495.53;4925535;27;98571;-72
2023/06/24 09:47:54;;;;;;;;;;;;;;;38.51;31.68;101496.47;4921143;27;97966;-73
2023/06/24 09:50:21;;;;;;;;;;;;;;;39.61;31.34;101492.22;4945947;28;98242;-71
2023/06/24 09:52:47;;;;;;;;;;;;;;;37.24;34.01;101484.41;4922228;28;99242;-73
2023/06/24 09:55:16;;;;;;;;;;;;;;;39.88;31.92;101489.06;4947306;27;98162;-71
2023/06/24 09:57:46;;;;;;;;;;;;;;;41.03;31.52;101477.94;4929221;27;99213;-76
2023/06/24 10:00:18;;;;;;;;;;;;;;;41.90;31.04;101466.03;4926561;28;98101;-71
2023/06/24 10:02:45;;;;;;;;;;;;;;;42.54;31.09;101471.28;4931284;27;98756;-76
2023/06/24 10:05:15;;;;;;;;;;;;;;;42.94;30.77;101467.63;4944488;27;98128;-72
2023/06/24 10:07:42;;;;;;;;;;;;;;;43.51;30.78;101464.44;4945513;28;98263;-71
2023/06/24 10:10:10;;;;;;;;;;;;;;;40.49;33.90;101454.22;4961041;28;98257;-74
2023/06/24 10:12:37;;;;;;;;;;;;;;;42.37;32.15;101450.91;4933286;27;98334;-75
2023/06/24 10:15:04;;;;;;;;;;;;;;;40.49;33.79;101454.22;4920764;28;98476;-74
2023/06/24 10:17:31;;;;;;;;;;;;;;;40.28;34.23;101442.78;4914544;28;98265;-71
2023/06/24 10:19:57;;;;;;;;;;;;;;;38.84;35.31;101439.44;4927160;27;98229;-71
2023/06/24 10:22:25;;;;;;;;;;;;;;;36.88;37.16;101430.81;4921610;27;97999;-71
2023/06/24 10:24:52;;;;;;;;;;;;;;;35.83;37.88;101441.03;4916783;28;99651;-71
2023/06/24 10:27:21;;;;;;;;;;;;;;;39.00;34.20;101443.03;4923362;27;98033;-71
2023/06/24 10:29:48;;;;;;;;;;;;;;;39.91;33.33;101442.25;4923032;28;100156;-74
2023/06/24 10:32:15;;;;;;;;;;;;;;;40.65;33.00;101438.44;4932341;27;98119;-75
2023/06/24 10:34:42;;;;;;;;;;;;;;;39.99;33.96;101432.34;4926598;28;98140;-74
2023/06/24 10:37:12;;;;;;;;;;;;;;;37.64;36.65;101425.50;4941692;28;98131;-75
2023/06/24 10:39:44;;;;;;;;;;;;;;;36.32;37.20;101424.84;4944123;27;98134;-74
2023/06/24 10:42:39;;;;;;;;;;;;;;;38.28;34.94;101421.38;4931374;27;99162;-71
2023/06/24 10:45:09;;;;;;;;;;;;;;;35.69;37.46;101424.41;4938188;27;101724;-72
2023/06/24 10:47:45;;;;;;;;;;;;;;;37.21;35.67;101422.66;4952287;27;98833;-74
2023/06/24 10:50:13;;;;;;;;;;;;;;;38.94;33.64;101433.53;4917729;28;99103;-72
2023/06/24 10:52:41;;;;;;;;;;;;;;;39.96;33.02;101427.59;4939977;27;98636;-72
2023/06/24 10:55:08;;;;;;;;;;;;;;;40.77;32.57;101417.06;4941627;27;99347;-71
2023/06/24 10:57:35;;;;;;;;;;;;;;;40.32;33.18;101420.88;4928571;28;98202;-72
2023/06/24 11:00:02;;;;;;;;;;;;;;;38.06;35.66;101409.00;4921976;28;99862;-71
2023/06/24 11:02:29;;;;;;;;;;;;;;;36.98;36.74;101401.81;4941100;28;101339;-72
2023/06/24 11:05:00;;;;;;;;;;;;;;;39.67;33.29;101410.69;4928054;27;97985;-72
2023/06/24 11:07:30;;;;;;;;;;;;;;;39.84;33.28;101412.22;4918075;28;98303;-72
2023/06/24 11:09:59;;;;;;;;;;;;;;;40.43;32.82;101410.84;4926445;27;98215;-75
2023/06/24 11:12:35;;;;;;;;;;;;;;;40.69;32.65;101413.69;4927155;27;98486;-75
2023/06/24 11:15:07;;;;;;;;;;;;;;;40.74;32.91;101401.81;4919197;27;98366;-72
2023/06/24 11:17:34;;;;;;;;;;;;;;;39.79;33.95;101401.50;4937632;27;99202;-72
2023/06/24 11:20:01;;;;;;;;;;;;;;;40.06;33.59;101398.28;4944237;27;98486;-75
2023/06/24 11:22:27;;;;;;;;;;;;;;;40.13;33.36;101394.47;4928467;27;99473;-75
2023/06/24 11:24:56;;;;;;;;;;;;;;;37.91;35.57;101388.81;4923054;27;99461;-75
2023/06/24 11:27:26;;;;;;;;;;;;;;;37.41;35.67;101397.44;4918164;28;99476;-74
2023/06/24 11:29:53;;;;;;;;;;;;;;;38.33;34.76;101388.31;4927931;27;98225;-75
2023/06/24 11:32:20;;;;;;;;;;;;;;;39.01;33.91;101393.13;4916930;28;103252;-73
2023/06/24 11:34:46;;;;;;;;;;;;;;;39.27;34.10;101385.63;4930853;28;98275;-72
2023/06/24 11:37:13;;;;;;;;;;;;;;;39.42;33.76;101381.19;4927539;28;98019;-74
2023/06/24 11:39:40;;;;;;;;;;;;;;;39.57;33.88;101378.72;4921384;28;98022;-74
2023/06/24 11:42:09;;;;;;;;;;;;;;;39.09;34.65;101386.06;4926281;28;98094;-74
2023/06/24 11:44:35;;;;;;;;;;;;;;;37.45;36.16;101372.88;4948294;27;98177;-74
2023/06/24 11:47:05;;;;;;;;;;;;;;;38.06;35.14;101376.03;4926281;27;100277;-72
2023/06/24 11:49:31;;;;;;;;;;;;;;;38.41;34.79;101378.50;4925921;28;98200;-74
2023/06/24 11:51:57;;;;;;;;;;;;;;;38.55;34.48;101362.06;4926915;27;100151;-72
2023/06/24 11:54:24;;;;;;;;;;;;;;;38.74;34.56;101365.22;4924474;27;127702;-72
2023/06/24 11:56:54;;;;;;;;;;;;;;;38.95;34.78;101373.16;4942794;28;98978;-74
2023/06/24 11:59:27;;;;;;;;;;;;;;;39.19;34.55;101372.94;4941979;28;99549;-74
2023/06/24 12:01:57;;;;;;;;;;;;;;;39.44;34.45;101380.72;4924913;27;99963;-74
2023/06/24 12:04:33;;;;;;;;;;;;;;;39.68;34.04;101367.97;4909783;28;99716;-74
2023/06/24 12:06:59;;;;;;;;;;;;;;;39.61;34.33;101365.31;4941661;28;98273;-72
2023/06/24 12:09:25;;;;;;;;;;;;;;;39.57;34.58;101372.31;4940500;27;99217;-74
2023/06/24 12:11:52;;;;;;;;;;;;;;;39.54;34.40;101357.09;4923167;27;98286;-72
2023/06/24 12:14:18;;;;;;;;;;;;;;;39.61;34.41;101361.72;4925123;28;98252;-72
2023/06/24 12:16:45;;;;;;;;;;;;;;;39.57;34.51;101355.38;4925550;27;98619;-74
2023/06/24 12:19:11;;;;;;;;;;;;;;;39.41;34.25;101359.06;4954749;28;98304;-74
2023/06/24 12:21:37;;;;;;;;;;;;;;;39.32;34.76;101358.94;4924154;27;100380;-73
2023/06/24 12:24:04;;;;;;;;;;;;;;;38.12;35.75;101339.72;4919372;27;98288;-73
2023/06/24 12:26:31;;;;;;;;;;;;;;;38.14;35.71;101351.34;4956942;27;98383;-73
2023/06/24 12:28:57;;;;;;;;;;;;;;;36.92;36.38;101352.13;4936300;27;109705;-74
2023/06/24 12:31:25;;;;;;;;;;;;;;;37.05;35.75;101348.28;4938004;27;99516;-73
2023/06/24 12:33:51;;;;;;;;;;;;;;;37.42;35.51;101342.84;4935326;27;99282;-75
2023/06/24 12:36:18;;;;;;;;;;;;;;;37.55;35.45;101347.38;4924745;27;98063;-74
2023/06/24 12:38:45;;;;;;;;;;;;;;;37.79;34.78;101352.91;4934157;27;98366;-73
2023/06/24 12:41:11;;;;;;;;;;;;;;;38.06;34.48;101355.56;4919664;27;98693;-73